Time;durP1;ratioP1;P1;durP2;ratioP2;P2;SDS_P1;SDS_P2;PMS_P1;PMS_P2;Temp;Humidity;BMP_temperature;BMP_pressure;BME280_temperature;BME280_humidity;BME280_pressure;Samples;Min_cycle;Max_cycle;Signal;HPM_P1;HPM_P2
2021/04/23 00:00:29;;;;;;;14.83;9.47;;;8.40;99.90;;;;;;4239474;27;20027;-59
2021/04/23 00:02:30;;;;;;;16.23;9.93;;;8.40;99.90;;;;;;4239397;27;20522;-60
2021/04/23 00:04:31;;;;;;;11.00;7.53;;;8.40;99.90;;;;;;4238970;27;20027;-57
2021/04/23 00:06:41;;;;;;;12.57;8.63;;;8.40;99.90;;;;;;4239219;27;20091;-62
2021/04/23 00:08:45;;;;;;;18.43;9.87;;;8.40;99.90;;;;;;4238890;27;20850;-60
2021/04/23 00:10:47;;;;;;;13.90;9.07;;;8.50;99.90;;;;;;4238812;27;20108;-60
2021/04/23 00:12:48;;;;;;;14.20;9.23;;;8.50;99.90;;;;;;4239684;27;20432;-61
2021/04/23 00:14:51;;;;;;;15.13;8.90;;;8.40;99.90;;;;;;4237819;27;20039;-60
2021/04/23 00:16:53;;;;;;;15.80;9.00;;;8.30;99.90;;;;;;4238964;27;20051;-60
2021/04/23 00:18:54;;;;;;;15.73;9.33;;;8.30;99.90;;;;;;4239980;27;20891;-61
2021/04/23 00:20:56;;;;;;;14.13;9.77;;;8.20;99.90;;;;;;4237727;27;20039;-61
2021/04/23 00:23:00;;;;;;;15.70;9.87;;;8.20;99.90;;;;;;4241758;27;20823;-60
2021/04/23 00:25:02;;;;;;;17.00;9.23;;;8.30;99.90;;;;;;4242762;27;20028;-64
2021/04/23 00:27:04;;;;;;;15.60;9.47;;;8.30;99.90;;;;;;4242742;27;20084;-57
2021/04/23 00:29:06;;;;;;;17.03;9.23;;;8.30;99.90;;;;;;4242841;27;20088;-61
2021/04/23 00:31:10;;;;;;;13.63;9.63;;;8.40;99.90;;;;;;4242602;27;20080;-60
2021/04/23 00:33:11;;;;;;;14.07;9.30;;;8.40;99.90;;;;;;4240903;27;20486;-63
2021/04/23 00:35:14;;;;;;;13.30;8.97;;;8.30;99.90;;;;;;4242547;27;20031;-61
2021/04/23 00:37:15;;;;;;;14.93;10.27;;;8.30;99.90;;;;;;4242468;27;20039;-59
2021/04/23 00:39:16;;;;;;;14.53;9.93;;;8.20;99.90;;;;;;4242256;27;20084;-61
2021/04/23 00:41:26;;;;;;;14.97;10.37;;;8.20;99.90;;;;;;4242475;27;20073;-61
2021/04/23 00:43:29;;;;;;;18.37;11.13;;;8.20;99.90;;;;;;4242215;27;20076;-61
2021/04/23 00:45:31;;;;;;;16.70;11.37;;;8.10;99.90;;;;;;4242416;27;20440;-61
2021/04/23 00:47:32;;;;;;;16.67;10.97;;;8.10;99.90;;;;;;4242296;27;20047;-61
2021/04/23 00:49:33;;;;;;;16.40;11.17;;;8.10;99.90;;;;;;4242471;27;20031;-61
2021/04/23 00:51:39;;;;;;;17.03;11.03;;;8.10;99.90;;;;;;4242243;27;20047;-61
2021/04/23 00:53:44;;;;;;;17.60;11.53;;;8.00;99.90;;;;;;4240554;27;20068;-61
2021/04/23 00:55:45;;;;;;;17.50;11.67;;;8.00;99.90;;;;;;4242527;27;20076;-60
2021/04/23 00:57:47;;;;;;;15.17;10.10;;;8.00;99.90;;;;;;4242212;27;20028;-71
2021/04/23 00:59:49;;;;;;;17.60;11.60;;;8.00;99.90;;;;;;4242687;27;20027;-61
2021/04/23 01:02:10;;;;;;;19.50;11.47;;;8.00;99.90;;;;;;4242146;27;20031;-54
2021/04/23 01:04:13;;;;;;;17.43;11.07;;;8.00;99.90;;;;;;4242375;27;20027;-70
2021/04/23 01:06:34;;;;;;;14.87;10.40;;;8.00;99.90;;;;;;4241979;27;20031;-62
2021/04/23 01:08:35;;;;;;;17.67;10.83;;;8.00;99.90;;;;;;4225504;28;20058;-61
2021/04/23 01:10:37;;;;;;;15.50;10.77;;;8.00;99.90;;;;;;4233152;27;20030;-60
2021/04/23 01:12:39;;;;;;;15.10;10.80;;;8.10;99.90;;;;;;4242433;27;20031;-61
2021/04/23 01:14:41;;;;;;;16.67;11.57;;;8.10;99.90;;;;;;4241464;27;20035;-61
2021/04/23 01:16:43;;;;;;;17.10;12.20;;;8.10;99.90;;;;;;4241938;27;20027;-61
2021/04/23 01:18:45;;;;;;;22.23;11.57;;;8.10;99.90;;;;;;4242444;27;20039;-61
2021/04/23 01:20:47;;;;;;;18.57;13.10;;;8.00;99.90;;;;;;4242018;27;20091;-60
2021/04/23 01:22:49;;;;;;;19.03;12.97;;;8.00;99.90;;;;;;4242071;27;20475;-61
2021/04/23 01:24:50;;;;;;;22.57;14.27;;;8.00;99.90;;;;;;4241818;27;20031;-60
2021/04/23 01:26:54;;;;;;;19.07;12.47;;;8.00;99.90;;;;;;4239809;27;20027;-61
2021/04/23 01:28:56;;;;;;;18.53;13.37;;;8.00;99.90;;;;;;4241982;27;20039;-61
2021/04/23 01:30:58;;;;;;;21.57;14.07;;;8.00;99.90;;;;;;4242097;27;20039;-61
2021/04/23 01:32:59;;;;;;;22.30;12.90;;;8.10;99.90;;;;;;4241294;27;20543;-63
2021/04/23 01:35:02;;;;;;;21.30;13.70;;;8.10;99.90;;;;;;4241703;27;20039;-57
2021/04/23 01:37:05;;;;;;;22.23;12.90;;;8.10;99.90;;;;;;4240833;27;20027;-61
2021/04/23 01:39:17;;;;;;;18.13;12.03;;;8.10;99.90;;;;;;4241257;27;20210;-60
2021/04/23 01:41:20;;;;;;;18.43;12.43;;;8.20;99.90;;;;;;4240806;27;20084;-61
2021/04/23 01:43:21;;;;;;;19.47;13.03;;;8.10;99.90;;;;;;4241692;27;20023;-61
2021/04/23 01:45:22;;;;;;;26.23;12.67;;;8.20;99.90;;;;;;4241334;27;20372;-61
2021/04/23 01:47:27;;;;;;;25.40;13.77;;;8.20;99.90;;;;;;4242671;27;20158;-60
2021/04/23 01:49:28;;;;;;;17.93;12.33;;;8.20;99.90;;;;;;4241866;27;20432;-61
2021/04/23 01:51:29;;;;;;;17.43;11.73;;;8.20;99.90;;;;;;4241419;27;20047;-59
2021/04/23 01:53:31;;;;;;;17.23;11.53;;;8.20;99.90;;;;;;4241593;27;20563;-62
2021/04/23 01:55:33;;;;;;;18.07;12.20;;;8.30;99.90;;;;;;4241127;27;20960;-61
2021/04/23 01:57:34;;;;;;;21.53;13.47;;;8.20;99.90;;;;;;4239902;27;20035;-61
2021/04/23 01:59:37;;;;;;;25.07;15.03;;;8.20;99.90;;;;;;4241060;27;20108;-70
2021/04/23 02:01:39;;;;;;;22.23;14.30;;;8.20;99.90;;;;;;4240408;27;20482;-60
2021/04/23 02:03:41;;;;;;;21.20;14.33;;;8.20;99.90;;;;;;4241407;27;20015;-60
2021/04/23 02:05:43;;;;;;;23.37;15.67;;;8.30;99.90;;;;;;4240042;27;20120;-60
2021/04/23 02:07:44;;;;;;;22.50;15.77;;;8.20;99.90;;;;;;4240840;27;20027;-61
2021/04/23 02:09:45;;;;;;;23.43;15.60;;;8.30;99.90;;;;;;4240928;27;20080;-62
2021/04/23 02:11:50;;;;;;;27.10;15.53;;;8.30;99.90;;;;;;4240591;27;20092;-62
2021/04/23 02:13:55;;;;;;;28.43;17.10;;;8.30;99.90;;;;;;4241169;27;20039;-60
2021/04/23 02:15:57;;;;;;;28.00;16.23;;;8.30;99.90;;;;;;4240765;27;20456;-60
2021/04/23 02:17:59;;;;;;;24.40;16.10;;;8.30;99.90;;;;;;4241328;27;20439;-61
2021/04/23 02:20:01;;;;;;;28.63;17.03;;;8.30;99.90;;;;;;4240956;27;20076;-61
2021/04/23 02:22:03;;;;;;;29.37;17.03;;;8.30;99.90;;;;;;4241115;27;20023;-67
2021/04/23 02:24:05;;;;;;;24.70;15.83;;;8.30;99.90;;;;;;4223579;28;20031;-60
2021/04/23 02:26:06;;;;;;;23.67;16.10;;;8.30;99.90;;;;;;4224088;27;21482;-60
2021/04/23 02:28:09;;;;;;;27.50;14.53;;;8.30;99.90;;;;;;4223357;28;20390;-61
2021/04/23 02:30:14;;;;;;;23.03;14.60;;;8.30;99.90;;;;;;4224112;28;20035;-60
2021/04/23 02:32:15;;;;;;;20.23;13.97;;;8.30;99.90;;;;;;4223794;28;20088;-62
2021/04/23 02:34:18;;;;;;;16.70;11.37;;;8.30;99.90;;;;;;4227337;27;20035;-61
2021/04/23 02:36:20;;;;;;;22.80;12.10;;;8.30;99.90;;;;;;4240544;27;20063;-60
2021/04/23 02:38:23;;;;;;;17.07;12.03;;;8.30;99.90;;;;;;4240902;27;20421;-61
2021/04/23 02:40:27;;;;;;;16.60;11.60;;;8.30;99.90;;;;;;4240876;27;20023;-60
2021/04/23 02:42:28;;;;;;;16.40;10.63;;;8.30;99.90;;;;;;4240529;27;20031;-61
2021/04/23 02:44:29;;;;;;;15.67;10.73;;;8.30;99.90;;;;;;4240261;27;20024;-61
2021/04/23 02:46:31;;;;;;;17.87;10.40;;;8.30;99.90;;;;;;4240375;27;20494;-61
2021/04/23 02:48:35;;;;;;;18.53;11.43;;;8.40;99.90;;;;;;4241029;27;20035;-61
2021/04/23 02:50:39;;;;;;;20.90;10.87;;;8.40;99.90;;;;;;4239978;27;20051;-62
2021/04/23 02:52:40;;;;;;;17.93;10.43;;;8.50;99.90;;;;;;4240150;27;20080;-63
2021/04/23 02:54:41;;;;;;;16.47;11.00;;;8.40;99.90;;;;;;4239490;27;20039;-59
2021/04/23 02:56:43;;;;;;;14.53;8.87;;;8.40;99.90;;;;;;4240471;27;20564;-59
2021/04/23 02:58:44;;;;;;;15.60;9.40;;;8.50;99.90;;;;;;4240504;27;20020;-60
2021/04/23 03:00:51;;;;;;;15.50;9.70;;;8.50;99.90;;;;;;4240261;27;20159;-60
2021/04/23 03:02:53;;;;;;;13.70;9.53;;;8.40;99.90;;;;;;4240072;27;20026;-60
2021/04/23 03:04:56;;;;;;;14.97;9.33;;;8.40;99.90;;;;;;4240159;27;20448;-59
2021/04/23 03:06:58;;;;;;;15.43;10.10;;;8.40;99.90;;;;;;4240138;27;20394;-61
2021/04/23 03:08:59;;;;;;;14.97;9.80;;;8.40;99.90;;;;;;4228938;27;20065;-60
2021/04/23 03:11:14;;;;;;;17.70;10.53;;;8.40;99.90;;;;;;4222395;27;20569;-60
2021/04/23 03:13:21;;;;;;;12.43;8.80;;;8.40;99.90;;;;;;4222626;28;20039;-57
2021/04/23 03:15:25;;;;;;;14.87;9.53;;;8.40;99.90;;;;;;4222521;28;20031;-60
2021/04/23 03:17:26;;;;;;;24.07;11.23;;;8.40;99.90;;;;;;4223374;28;20020;-60
2021/04/23 03:19:27;;;;;;;15.27;10.57;;;8.40;99.90;;;;;;4223061;28;20077;-59
2021/04/23 03:21:29;;;;;;;15.93;10.57;;;8.40;99.90;;;;;;4223770;28;20475;-59
2021/04/23 03:23:30;;;;;;;16.27;10.90;;;8.40;99.90;;;;;;4222946;28;20078;-59
2021/04/23 03:25:32;;;;;;;16.73;10.40;;;8.40;99.90;;;;;;4222715;28;20093;-60
2021/04/23 03:27:34;;;;;;;19.20;10.87;;;8.40;99.90;;;;;;4222941;28;20096;-60
2021/04/23 03:29:35;;;;;;;16.07;10.30;;;8.40;99.90;;;;;;4222900;28;20077;-56
2021/04/23 03:31:36;;;;;;;15.67;10.30;;;8.40;99.90;;;;;;4223729;27;20060;-62
2021/04/23 03:33:38;;;;;;;18.97;11.53;;;8.40;99.90;;;;;;4222804;28;20039;-60
2021/04/23 03:35:43;;;;;;;21.33;13.33;;;8.40;99.90;;;;;;4222566;28;20504;-59
2021/04/23 03:37:46;;;;;;;19.73;12.10;;;8.40;99.90;;;;;;4222501;28;20081;-60
2021/04/23 03:39:47;;;;;;;17.53;11.83;;;8.40;99.90;;;;;;4224014;27;20376;-65
2021/04/23 03:41:48;;;;;;;21.43;12.23;;;8.40;99.90;;;;;;4222245;28;20072;-59
2021/04/23 03:43:51;;;;;;;19.43;11.97;;;8.40;99.90;;;;;;4223156;28;20019;-63
2021/04/23 03:45:53;;;;;;;20.57;11.93;;;8.40;99.90;;;;;;4222773;28;20085;-61
2021/04/23 03:47:54;;;;;;;22.27;12.93;;;8.40;99.90;;;;;;4222326;28;20019;-60
2021/04/23 03:49:55;;;;;;;29.13;12.20;;;8.40;99.90;;;;;;4222776;27;20442;-60
2021/04/23 03:51:56;;;;;;;18.43;11.60;;;8.50;99.90;;;;;;4239682;27;20559;-62
2021/04/23 03:53:58;;;;;;;20.10;11.20;;;8.40;99.90;;;;;;4239231;27;20035;-61
2021/04/23 03:55:59;;;;;;;18.27;11.87;;;8.40;99.90;;;;;;4238812;27;20582;-66
2021/04/23 03:58:02;;;;;;;18.27;10.57;;;8.50;99.90;;;;;;4239509;27;20136;-67
2021/04/23 04:00:11;;;;;;;23.00;11.70;;;8.50;99.90;;;;;;4237552;27;20043;-64
2021/04/23 04:02:12;;;;;;;19.07;11.37;;;8.50;99.90;;;;;;4236735;27;20039;-68
2021/04/23 04:04:13;;;;;;;20.33;10.77;;;8.40;99.90;;;;;;4233669;27;20089;-62
2021/04/23 04:06:14;;;;;;;22.67;11.90;;;8.40;99.90;;;;;;4222334;28;20053;-64
2021/04/23 04:08:16;;;;;;;24.13;12.37;;;8.40;99.90;;;;;;4221789;28;20031;-70
2021/04/23 04:10:18;;;;;;;20.40;11.97;;;8.40;99.90;;;;;;4221906;28;20040;-70
2021/04/23 04:12:19;;;;;;;20.50;10.87;;;8.40;99.90;;;;;;4222584;28;20088;-70
2021/04/23 04:14:20;;;;;;;22.10;11.97;;;8.40;99.90;;;;;;4222680;28;20047;-67
2021/04/23 04:16:21;;;;;;;18.23;11.40;;;8.40;99.90;;;;;;4222021;28;20036;-71
2021/04/23 04:18:23;;;;;;;20.20;11.10;;;8.40;99.90;;;;;;4222773;28;20124;-73
2021/04/23 04:20:27;;;;;;;19.20;11.73;;;8.40;99.90;;;;;;4223597;28;20536;-73
2021/04/23 04:22:32;;;;;;;20.27;11.70;;;8.50;99.90;;;;;;4238796;28;20088;-72
2021/04/23 04:24:33;;;;;;;21.63;11.87;;;8.50;99.90;;;;;;4238033;28;20027;-67
2021/04/23 04:26:34;;;;;;;20.67;12.27;;;8.50;99.90;;;;;;4238985;27;20039;-69
2021/04/23 04:28:36;;;;;;;25.43;12.50;;;8.50;99.90;;;;;;4238658;28;20027;-65
2021/04/23 04:30:38;;;;;;;21.60;11.60;;;8.50;99.90;;;;;;4232838;28;20422;-69
2021/04/23 04:32:39;;;;;;;20.57;11.13;;;8.60;99.90;;;;;;4222499;28;20032;-70
2021/04/23 04:34:40;;;;;;;21.83;13.47;;;8.60;99.90;;;;;;4238028;28;20039;-72
2021/04/23 04:36:42;;;;;;;22.10;11.50;;;8.60;99.90;;;;;;4224867;28;20035;-61
2021/04/23 04:38:43;;;;;;;22.17;12.00;;;8.60;99.90;;;;;;4221538;28;20413;-62
2021/04/23 04:40:47;;;;;;;15.60;10.97;;;8.70;99.90;;;;;;4221191;28;20081;-68
2021/04/23 04:42:48;;;;;;;19.07;11.47;;;8.70;99.90;;;;;;4221376;28;20027;-62
2021/04/23 04:44:50;;;;;;;18.93;10.80;;;8.80;99.90;;;;;;4222116;28;20108;-61
2021/04/23 04:46:51;;;;;;;16.53;11.43;;;8.80;99.90;;;;;;4221228;28;20377;-62
2021/04/23 04:48:52;;;;;;;17.23;11.47;;;8.90;99.90;;;;;;4221671;28;20044;-63
2021/04/23 04:50:57;;;;;;;17.80;10.67;;;8.90;99.90;;;;;;4224719;28;20043;-59
2021/04/23 04:53:03;;;;;;;22.77;11.90;;;8.90;99.90;;;;;;4221995;28;20112;-61
2021/04/23 04:55:07;;;;;;;17.27;10.50;;;8.90;99.90;;;;;;4221155;28;20052;-63
2021/04/23 04:57:08;;;;;;;15.47;10.63;;;8.90;99.90;;;;;;4220383;28;20065;-63
2021/04/23 04:59:09;;;;;;;17.80;11.17;;;8.90;99.90;;;;;;4221886;28;20433;-62
2021/04/23 05:01:12;;;;;;;15.83;10.10;;;9.00;99.90;;;;;;4221749;28;20433;-61
2021/04/23 05:03:13;;;;;;;16.00;11.00;;;9.00;99.90;;;;;;4221278;28;20077;-57
2021/04/23 05:05:15;;;;;;;16.40;10.80;;;9.00;99.90;;;;;;4221640;28;20028;-60
2021/04/23 05:07:17;;;;;;;17.10;11.17;;;9.00;99.90;;;;;;4220817;28;20032;-59
2021/04/23 05:09:18;;;;;;;17.20;11.03;;;9.00;99.90;;;;;;4224082;28;20409;-59
2021/04/23 05:11:19;;;;;;;17.47;11.57;;;9.00;99.90;;;;;;4224955;28;20043;-58
2021/04/23 05:13:20;;;;;;;19.50;11.37;;;9.00;99.90;;;;;;4224537;28;20039;-61
2021/04/23 05:15:21;;;;;;;24.57;11.50;;;9.00;99.90;;;;;;4224478;28;20036;-60
2021/04/23 05:17:23;;;;;;;17.90;11.00;;;9.10;99.90;;;;;;4224378;28;20027;-59
2021/04/23 05:19:24;;;;;;;16.13;11.13;;;9.10;99.90;;;;;;4224710;28;20084;-60
2021/04/23 05:21:25;;;;;;;18.00;11.10;;;9.00;99.90;;;;;;4224995;28;20520;-60
2021/04/23 05:23:27;;;;;;;23.20;12.23;;;9.00;99.90;;;;;;4224666;28;20537;-60
2021/04/23 05:25:29;;;;;;;21.73;13.23;;;9.00;99.90;;;;;;4226088;27;20031;-58
2021/04/23 05:27:30;;;;;;;17.70;11.17;;;9.00;99.90;;;;;;4234493;27;20028;-59
2021/04/23 05:29:31;;;;;;;16.17;10.77;;;9.00;99.90;;;;;;4223851;28;20552;-59
2021/04/23 05:31:33;;;;;;;20.73;11.47;;;8.90;99.90;;;;;;4229045;27;20507;-63
2021/04/23 05:33:34;;;;;;;23.40;11.77;;;8.90;99.90;;;;;;4239508;27;20034;-58
2021/04/23 05:35:36;;;;;;;18.10;11.67;;;8.90;99.90;;;;;;4226283;27;20020;-69
2021/04/23 05:37:38;;;;;;;23.13;14.50;;;8.90;99.90;;;;;;4224692;27;20135;-56
2021/04/23 05:39:43;;;;;;;24.87;15.07;;;8.80;99.90;;;;;;4224682;28;20040;-58
2021/04/23 05:41:44;;;;;;;27.47;14.53;;;8.80;99.90;;;;;;4224481;28;20036;-64
2021/04/23 05:43:47;;;;;;;22.33;13.70;;;8.90;99.90;;;;;;4236418;27;20530;-67
2021/04/23 05:45:49;;;;;;;20.27;11.83;;;8.90;99.90;;;;;;4224697;28;20031;-74
2021/04/23 05:47:51;;;;;;;19.53;11.70;;;9.00;99.90;;;;;;4232336;27;20038;-67
2021/04/23 05:49:52;;;;;;;16.70;11.80;;;9.00;99.90;;;;;;4238879;27;20031;-66
2021/04/23 05:51:53;;;;;;;17.63;11.30;;;9.10;99.90;;;;;;4241497;27;20043;-78
2021/04/23 05:53:55;;;;;;;23.23;12.00;;;9.20;99.90;;;;;;4242189;27;20083;-78
2021/04/23 05:55:56;;;;;;;17.47;11.63;;;9.20;99.90;;;;;;4239361;27;20128;-72
2021/04/23 05:58:00;;;;;;;16.00;11.27;;;9.20;99.90;;;;;;4236426;27;20035;-76
2021/04/23 06:00:03;;;;;;;18.97;12.77;;;9.30;99.90;;;;;;4225085;28;20089;-74
2021/04/23 06:02:04;;;;;;;23.47;13.30;;;9.30;99.90;;;;;;4225011;28;20023;-73
2021/04/23 06:04:06;;;;;;;27.40;14.63;;;9.30;99.90;;;;;;4223845;28;20520;-77
2021/04/23 06:06:07;;;;;;;24.40;14.53;;;9.30;99.90;;;;;;4223848;28;20027;-64
2021/04/23 06:08:10;;;;;;;27.37;15.40;;;9.20;99.90;;;;;;4224135;27;20461;-72
2021/04/23 06:10:14;;;;;;;29.37;16.63;;;9.20;99.90;;;;;;4223842;28;20112;-63
2021/04/23 06:12:15;;;;;;;35.47;18.90;;;9.20;99.90;;;;;;4223014;28;20048;-70
2021/04/23 06:14:16;;;;;;;28.73;15.23;;;9.20;99.90;;;;;;4222699;28;20035;-61
2021/04/23 06:16:18;;;;;;;31.57;17.93;;;9.10;99.90;;;;;;4223237;27;20100;-62
2021/04/23 06:18:19;;;;;;;29.37;17.43;;;9.00;99.90;;;;;;4226659;27;20043;-65
2021/04/23 06:20:24;;;;;;;34.10;16.23;;;9.00;99.90;;;;;;4233238;27;20815;-70
2021/04/23 06:22:26;;;;;;;32.07;19.10;;;9.00;99.90;;;;;;4229648;27;20057;-64
2021/04/23 06:24:27;;;;;;;32.33;16.97;;;9.00;99.90;;;;;;4223911;27;20490;-60
2021/04/23 06:26:28;;;;;;;29.03;17.80;;;9.00;99.90;;;;;;4231801;27;20039;-62
2021/04/23 06:28:29;;;;;;;33.57;18.30;;;9.00;99.90;;;;;;4225535;27;20479;-62
2021/04/23 06:30:33;;;;;;;31.90;17.63;;;9.00;99.90;;;;;;4225580;27;20053;-63
2021/04/23 06:32:35;;;;;;;23.20;15.07;;;9.00;99.90;;;;;;4224095;27;20081;-63
2021/04/23 06:34:36;;;;;;;23.50;14.50;;;9.00;99.90;;;;;;4240738;27;20487;-63
2021/04/23 06:36:38;;;;;;;30.13;19.27;;;9.00;99.90;;;;;;4239309;27;20067;-57
2021/04/23 06:38:40;;;;;;;31.60;18.10;;;9.00;99.90;;;;;;4240075;27;20027;-55
2021/04/23 06:40:41;;;;;;;25.10;15.63;;;9.00;99.90;;;;;;4240154;27;20027;-65
2021/04/23 06:42:44;;;;;;;25.47;13.30;;;9.10;99.90;;;;;;4238743;27;20028;-68
2021/04/23 06:44:45;;;;;;;22.83;13.40;;;9.10;99.90;;;;;;4240875;27;20120;-68
2021/04/23 06:46:47;;;;;;;21.60;13.10;;;9.20;99.90;;;;;;4240472;27;20027;-64
2021/04/23 06:48:49;;;;;;;20.57;11.80;;;9.30;99.90;;;;;;4237391;27;20039;-67
2021/04/23 06:50:51;;;;;;;18.33;11.57;;;9.30;99.90;;;;;;4222104;28;20047;-63
2021/04/23 06:52:55;;;;;;;21.83;13.53;;;9.40;99.90;;;;;;4230498;27;20468;-65
2021/04/23 06:54:56;;;;;;;20.77;12.23;;;9.50;99.90;;;;;;4239440;27;20047;-63
2021/04/23 06:56:57;;;;;;;21.00;12.17;;;9.70;99.90;;;;;;4238635;27;20451;-71
2021/04/23 06:58:59;;;;;;;19.67;11.47;;;9.80;99.90;;;;;;4240309;27;20301;-65
2021/04/23 07:01:00;;;;;;;18.87;11.67;;;9.90;99.90;;;;;;4239727;27;20027;-65
2021/04/23 07:03:02;;;;;;;22.83;12.33;;;10.10;99.90;;;;;;4240206;27;20027;-67
2021/04/23 07:05:05;;;;;;;22.33;13.77;;;10.10;99.90;;;;;;4234882;27;20019;-64
2021/04/23 07:07:06;;;;;;;23.90;10.93;;;10.30;99.90;;;;;;4222290;27;20076;-65
2021/04/23 07:09:08;;;;;;;14.77;9.40;;;10.30;99.90;;;;;;4233246;27;20039;-66
2021/04/23 07:11:12;;;;;;;12.87;7.60;;;10.20;99.90;;;;;;4239832;27;20350;-68
2021/04/23 07:13:13;;;;;;;13.33;8.53;;;10.20;99.90;;;;;;4225412;27;20144;-72
2021/04/23 07:15:18;;;;;;;11.20;8.47;;;10.20;99.90;;;;;;4222641;28;20031;-74
2021/04/23 07:17:19;;;;;;;18.03;9.43;;;10.20;99.90;;;;;;4222492;28;20088;-68
2021/04/23 07:19:21;;;;;;;10.70;6.47;;;10.20;99.90;;;;;;4222761;28;20417;-73
2021/04/23 07:21:22;;;;;;;10.10;7.63;;;10.20;99.90;;;;;;4227540;27;20031;-73
2021/04/23 07:23:23;;;;;;;13.13;8.97;;;10.30;99.90;;;;;;4230375;27;20031;-72
2021/04/23 07:25:26;;;;;;;18.87;8.10;;;10.40;99.90;;;;;;4239355;27;20182;-63
2021/04/23 07:27:27;;;;;;;11.30;7.57;;;10.40;99.90;;;;;;4239176;27;20027;-72
2021/04/23 07:29:28;;;;;;;14.77;7.97;;;10.40;99.90;;;;;;4239070;27;20072;-68
2021/04/23 07:31:29;;;;;;;18.67;8.47;;;10.20;99.90;;;;;;4239097;27;20039;-71
2021/04/23 07:33:31;;;;;;;16.53;8.77;;;9.90;99.90;;;;;;4239855;27;20043;-73
2021/04/23 07:35:32;;;;;;;11.50;7.60;;;10.10;99.90;;;;;;4239582;27;20042;-67
2021/04/23 07:37:33;;;;;;;8.83;6.70;;;10.20;99.90;;;;;;4239857;27;20047;-72
2021/04/23 07:39:34;;;;;;;14.17;6.90;;;10.30;99.90;;;;;;4239266;27;20035;-68
2021/04/23 07:41:38;;;;;;;8.73;5.70;;;10.40;99.90;;;;;;4228877;27;20108;-74
2021/04/23 07:43:39;;;;;;;8.87;4.07;;;10.70;99.90;;;;;;4237398;27;20023;-67
2021/04/23 07:45:40;;;;;;;6.17;4.43;;;10.90;99.90;;;;;;4238993;27;20042;-76
2021/04/23 07:47:44;;;;;;;7.40;4.27;;;11.20;99.90;;;;;;4239769;27;20039;-71
2021/04/23 07:49:47;;;;;;;3.57;3.10;;;11.30;99.90;;;;;;4239155;27;20498;-69
2021/04/23 07:51:48;;;;;;;7.07;4.03;;;11.50;99.90;;;;;;4238822;27;20072;-70
2021/04/23 07:53:49;;;;;;;3.77;3.13;;;11.60;99.90;;;;;;4239423;27;20445;-64
2021/04/23 07:55:50;;;;;;;3.93;2.60;;;11.70;99.90;;;;;;4238547;27;20092;-72
2021/04/23 07:57:55;;;;;;;5.37;3.00;;;11.80;99.90;;;;;;4239030;27;20043;-73
2021/04/23 07:59:57;;;;;;;4.63;2.30;;;11.80;99.90;;;;;;4222953;28;20023;-75
2021/04/23 08:01:58;;;;;;;6.97;2.40;;;12.10;99.90;;;;;;4221690;28;20184;-69
2021/04/23 08:04:00;;;;;;;11.90;3.10;;;12.10;99.90;;;;;;4220749;28;20384;-73
2021/04/23 08:06:01;;;;;;;4.93;2.67;;;12.10;99.90;;;;;;4222140;28;20096;-61
2021/04/23 08:08:04;;;;;;;6.77;2.50;;;12.40;99.90;;;;;;4221700;28;20044;-74
2021/04/23 08:10:06;;;;;;;3.17;2.50;;;12.60;99.90;;;;;;4222391;28;20027;-69
2021/04/23 08:12:08;;;;;;;4.83;2.80;;;12.70;99.90;;;;;;4229443;27;20043;-71
2021/04/23 08:14:09;;;;;;;4.37;1.93;;;12.80;99.90;;;;;;4239050;27;20471;-70
2021/04/23 08:16:10;;;;;;;3.13;2.43;;;12.80;99.90;;;;;;4238269;27;20032;-68
2021/04/23 08:18:11;;;;;;;3.23;1.67;;;12.70;99.90;;;;;;4237507;28;20027;-63
2021/04/23 08:20:13;;;;;;;3.07;1.87;;;12.90;99.90;;;;;;4227452;28;20043;-73
2021/04/23 08:22:15;;;;;;;2.63;1.73;;;12.90;99.20;;;;;;4237665;27;20131;-74
2021/04/23 08:24:16;;;;;;;4.97;1.23;;;13.00;96.50;;;;;;4232567;28;20027;-73
2021/04/23 08:26:18;;;;;;;2.50;1.30;;;12.80;90.90;;;;;;4233990;27;20039;-70
2021/04/23 08:28:19;;;;;;;7.43;2.00;;;12.70;90.70;;;;;;4221646;28;20348;-72
2021/04/23 08:30:24;;;;;;;4.10;1.70;;;12.60;89.40;;;;;;4222407;28;20031;-72
2021/04/23 08:32:25;;;;;;;3.93;1.60;;;12.50;86.50;;;;;;4238360;27;20055;-74
2021/04/23 08:34:26;;;;;;;3.63;1.80;;;12.60;88.50;;;;;;4239116;28;20505;-65
2021/04/23 08:36:27;;;;;;;3.43;1.50;;;12.80;87.70;;;;;;4236686;27;20080;-65
2021/04/23 08:38:28;;;;;;;4.40;2.60;;;13.00;87.80;;;;;;4226899;27;20035;-73
2021/04/23 08:40:30;;;;;;;6.00;2.27;;;13.00;86.10;;;;;;4238489;27;20043;-68
2021/04/23 08:42:32;;;;;;;6.43;3.90;;;12.80;85.50;;;;;;4236315;27;20144;-68
2021/04/23 08:44:33;;;;;;;2.87;2.00;;;12.70;86.30;;;;;;4225741;27;20069;-73
2021/04/23 08:46:36;;;;;;;3.47;2.33;;;12.80;88.30;;;;;;4233974;27;20080;-72
2021/04/23 08:48:38;;;;;;;2.83;1.53;;;12.90;89.20;;;;;;4241673;27;20464;-67
2021/04/23 08:50:40;;;;;;;3.33;1.80;;;13.10;87.70;;;;;;4241623;27;20103;-72
2021/04/23 08:52:45;;;;;;;6.90;1.87;;;13.20;86.80;;;;;;4242211;27;20458;-58
2021/04/23 08:54:46;;;;;;;3.23;1.60;;;13.30;85.40;;;;;;4242081;27;20754;-62
2021/04/23 08:56:48;;;;;;;5.17;1.90;;;13.40;85.00;;;;;;4241490;27;20039;-68
2021/04/23 08:58:50;;;;;;;4.03;2.13;;;13.40;84.30;;;;;;4241700;27;20031;-65
2021/04/23 09:00:51;;;;;;;8.47;1.70;;;13.50;83.80;;;;;;4229789;27;20160;-70
2021/04/23 09:02:52;;;;;;;2.97;1.60;;;13.60;81.70;;;;;;4224277;28;20614;-65
2021/04/23 09:04:54;;;;;;;5.40;2.20;;;13.70;81.60;;;;;;4225116;27;20043;-62
2021/04/23 09:07:06;;;;;;;2.77;1.63;;;13.80;80.80;;;;;;4240423;27;20048;-60
2021/04/23 09:09:13;;;;;;;5.07;1.77;;;13.70;77.50;;;;;;4242179;27;20043;-73
2021/04/23 09:11:20;;;;;;;4.20;1.70;;;13.60;76.40;;;;;;4241558;27;20027;-71
2021/04/23 09:13:21;;;;;;;2.60;1.57;;;13.60;76.60;;;;;;4242243;27;20055;-70
2021/04/23 09:15:24;;;;;;;9.27;1.60;;;13.60;75.40;;;;;;4239263;27;20027;-72
2021/04/23 09:17:26;;;;;;;3.53;1.40;;;13.60;74.70;;;;;;4233061;27;20424;-68
2021/04/23 09:19:33;;;;;;;7.47;2.10;;;13.60;74.00;;;;;;4241676;27;20035;-67
2021/04/23 09:21:46;;;;;;;2.87;1.37;;;13.60;73.20;;;;;;4233967;27;20447;-72
2021/04/23 09:23:52;;;;;;;3.93;1.50;;;13.70;70.10;;;;;;4225033;27;20024;-68
2021/04/23 09:25:56;;;;;;;8.90;2.60;;;13.70;71.60;;;;;;4225120;27;20051;-69
2021/04/23 09:27:57;;;;;;;4.87;1.80;;;13.50;72.90;;;;;;4230618;27;20031;-68
2021/04/23 09:30:03;;;;;;;6.97;2.13;;;13.40;73.50;;;;;;4224403;28;20855;-67
2021/04/23 09:32:10;;;;;;;6.30;2.67;;;13.20;70.10;;;;;;4223262;28;20088;-62
2021/04/23 09:34:11;;;;;;;8.17;3.07;;;13.00;70.30;;;;;;4224464;28;20436;-60
2021/04/23 09:36:24;;;;;;;15.53;6.83;;;12.90;71.10;;;;;;4238735;27;20367;-60
2021/04/23 09:38:26;;;;;;;14.70;8.43;;;12.90;70.20;;;;;;4241338;27;20074;-69
2021/04/23 09:40:34;;;;;;;16.53;7.13;;;13.00;70.30;;;;;;4238746;27;20016;-67
2021/04/23 09:42:56;;;;;;;4.27;1.83;;;13.10;67.70;;;;;;4231139;27;20023;-60
2021/04/23 09:44:57;;;;;;;3.73;1.73;;;13.20;63.70;;;;;;4228094;27;20560;-73
2021/04/23 09:47:02;;;;;;;4.70;1.30;;;13.20;65.60;;;;;;4223913;28;20068;-65
2021/04/23 09:49:15;;;;;;;2.53;1.53;;;13.10;62.70;;;;;;4224164;28;20023;-61
2021/04/23 09:51:19;;;;;;;7.33;2.40;;;13.00;62.60;;;;;;4224308;28;20567;-60
2021/04/23 09:53:30;;;;;;;5.63;2.23;;;13.10;64.50;;;;;;4223842;28;20138;-61
2021/04/23 09:55:33;;;;;;;5.00;1.90;;;13.10;64.10;;;;;;4222987;28;20051;-57
2021/04/23 09:57:36;;;;;;;5.43;1.40;;;13.20;64.80;;;;;;4223896;28;20035;-62
2021/04/23 09:59:48;;;;;;;5.33;1.60;;;13.20;63.60;;;;;;4223253;27;20047;-60
2021/04/23 10:01:51;;;;;;;3.07;1.20;;;13.10;61.90;;;;;;4223885;28;20491;-60
2021/04/23 10:03:52;;;;;;;4.60;1.30;;;13.20;62.20;;;;;;4224188;28;20088;-71
2021/04/23 10:05:53;;;;;;;3.63;1.70;;;13.20;58.70;;;;;;4224167;28;20040;-64
2021/04/23 10:07:55;;;;;;;3.93;1.70;;;13.30;59.20;;;;;;4223626;28;20088;-69
2021/04/23 10:10:01;;;;;;;6.97;1.90;;;13.50;59.90;;;;;;4223671;28;20057;-63
2021/04/23 10:12:02;;;;;;;6.80;1.83;;;13.50;59.30;;;;;;4223637;27;20048;-61
2021/04/23 10:14:13;;;;;;;2.67;1.60;;;13.60;58.50;;;;;;4238064;27;20043;-77
2021/04/23 10:16:35;;;;;;;1.52;1.42;;;13.70;56.30;;;;;;4240246;27;20023;-65
2021/04/23 10:18:36;;;;;;;5.70;1.67;;;13.80;57.40;;;;;;4239325;27;20831;-64
2021/04/23 10:20:42;;;;;;;6.83;2.07;;;13.80;56.50;;;;;;4240715;27;20848;-74
2021/04/23 10:22:43;;;;;;;8.30;2.87;;;13.70;56.10;;;;;;4240531;27;20023;-68
2021/04/23 10:24:45;;;;;;;6.47;2.03;;;13.70;56.00;;;;;;4239458;27;20068;-60
2021/04/23 10:26:47;;;;;;;3.23;1.70;;;13.70;55.80;;;;;;4240192;27;20031;-63
2021/04/23 10:28:48;;;;;;;6.53;1.70;;;13.80;56.40;;;;;;4221393;27;20032;-60
2021/04/23 10:30:52;;;;;;;5.07;1.93;;;13.70;54.70;;;;;;4229754;27;20039;-64
2021/04/23 10:32:56;;;;;;;7.27;1.40;;;13.60;56.30;;;;;;4222699;27;20039;-62